Time;durP1;ratioP1;P1;durP2;ratioP2;P2;SDS_P1;SDS_P2;PMS_P1;PMS_P2;Temp;Humidity;BMP_temperature;BMP_pressure;BME280_temperature;BME280_humidity;BME280_pressure;Samples;Min_cycle;Max_cycle;Signal;HPM_P1;HPM_P2
2021/09/18 00:02:08;;;;;;;2.10;2.00;;;;;;;21.05;72.35;100401.26;;;;-51
2021/09/18 00:05:08;;;;;;;2.21;2.10;;;;;;;21.05;72.28;100398.25;;;;-51
2021/09/18 00:08:08;;;;;;;2.33;2.13;;;;;;;21.04;72.31;100404.91;;;;-50
2021/09/18 00:11:07;;;;;;;2.35;2.13;;;;;;;21.04;72.29;100407.20;;;;-58
2021/09/18 00:14:08;;;;;;;2.30;2.10;;;;;;;21.03;72.30;100407.77;;;;-47
2021/09/18 00:17:08;;;;;;;2.31;2.10;;;;;;;21.03;72.32;100408.11;;;;-50
2021/09/18 00:20:08;;;;;;;2.57;1.99;;;;;;;21.02;72.33;100411.38;;;;-47
2021/09/18 00:23:08;;;;;;;2.31;2.13;;;;;;;21.02;72.28;100413.55;;;;-50
2021/09/18 00:26:07;;;;;;;2.20;2.03;;;;;;;21.01;72.33;100415.27;;;;-48
2021/09/18 00:29:08;;;;;;;2.21;2.07;;;;;;;21.00;72.36;100416.42;;;;-47
2021/09/18 00:32:08;;;;;;;2.26;2.07;;;;;;;21.00;72.33;100416.34;;;;-51
2021/09/18 00:35:08;;;;;;;2.09;1.94;;;;;;;21.01;72.35;100424.48;;;;-48
2021/09/18 00:38:08;;;;;;;2.33;2.10;;;;;;;21.00;72.41;100425.47;;;;-48
2021/09/18 00:41:08;;;;;;;2.25;2.05;;;;;;;20.99;72.34;100422.93;;;;-52
2021/09/18 00:44:08;;;;;;;2.34;2.14;;;;;;;20.99;72.36;100422.28;;;;-51
2021/09/18 00:47:07;;;;;;;2.25;2.05;;;;;;;20.98;72.28;100419.77;;;;-50
2021/09/18 00:50:08;;;;;;;2.25;2.11;;;;;;;20.97;72.29;100416.16;;;;-50
2021/09/18 00:53:08;;;;;;;2.41;2.16;;;;;;;20.96;72.33;100414.47;;;;-50
2021/09/18 00:56:08;;;;;;;2.31;2.11;;;;;;;20.97;72.36;100419.19;;;;-50
2021/09/18 00:59:08;;;;;;;2.14;2.00;;;;;;;20.97;72.33;100417.07;;;;-52
2021/09/18 01:02:07;;;;;;;2.23;2.03;;;;;;;20.96;72.29;100412.27;;;;-51
2021/09/18 01:05:08;;;;;;;2.29;2.09;;;;;;;20.95;72.30;100410.80;;;;-50
2021/09/18 01:08:10;;;;;;;2.51;2.10;;;;;;;20.95;72.33;100411.37;;;;-58
2021/09/18 01:11:07;;;;;;;2.13;1.93;;;;;;;20.94;72.29;100409.50;;;;-57
2021/09/18 01:14:08;;;;;;;2.16;1.96;;;;;;;20.94;72.35;100403.05;;;;-58
2021/09/18 01:17:08;;;;;;;2.31;2.11;;;;;;;20.93;72.29;100402.15;;;;-48
2021/09/18 01:20:08;;;;;;;2.59;2.13;;;;;;;20.93;72.33;100402.97;;;;-47
2021/09/18 01:23:08;;;;;;;2.20;2.00;;;;;;;20.93;72.34;100401.75;;;;-47
2021/09/18 01:26:08;;;;;;;2.51;2.09;;;;;;;20.92;72.33;100404.61;;;;-51
2021/09/18 01:29:08;;;;;;;2.41;2.21;;;;;;;20.92;72.34;100399.79;;;;-47
2021/09/18 01:32:07;;;;;;;2.33;2.15;;;;;;;20.92;72.34;100401.52;;;;-50
2021/09/18 01:35:08;;;;;;;2.30;2.10;;;;;;;20.91;72.30;100401.84;;;;-48
2021/09/18 01:38:07;;;;;;;2.20;2.00;;;;;;;20.91;72.24;100398.73;;;;-52
2021/09/18 01:41:08;;;;;;;2.83;2.05;;;;;;;20.90;72.25;100402.82;;;;-58
2021/09/18 01:44:08;;;;;;;2.29;2.09;;;;;;;20.90;72.29;100403.72;;;;-51
2021/09/18 01:47:07;;;;;;;2.29;2.09;;;;;;;20.90;72.30;100400.86;;;;-50
2021/09/18 01:50:08;;;;;;;2.36;2.16;;;;;;;20.89;72.22;100399.63;;;;-48
2021/09/18 01:53:08;;;;;;;2.13;2.00;;;;;;;20.89;72.34;100395.40;;;;-52
2021/09/18 01:56:08;;;;;;;2.30;2.10;;;;;;;20.88;72.32;100395.58;;;;-51
2021/09/18 01:59:08;;;;;;;2.01;1.91;;;;;;;20.88;72.37;100398.75;;;;-50
2021/09/18 02:02:07;;;;;;;2.22;2.06;;;;;;;20.87;72.34;100399.46;;;;-50
2021/09/18 02:05:08;;;;;;;2.44;2.00;;;;;;;20.88;72.29;100397.94;;;;-47
2021/09/18 02:08:07;;;;;;;2.21;2.10;;;;;;;20.87;72.35;100395.64;;;;-48
2021/09/18 02:11:07;;;;;;;2.31;2.11;;;;;;;20.87;72.32;100400.85;;;;-47
2021/09/18 02:14:08;;;;;;;2.12;1.92;;;;;;;20.86;72.35;100391.98;;;;-51
2021/09/18 02:17:09;;;;;;;2.21;2.01;;;;;;;20.87;72.29;100392.71;;;;-51
2021/09/18 02:20:08;;;;;;;2.17;2.03;;;;;;;20.86;72.29;100395.41;;;;-51
2021/09/18 02:23:07;;;;;;;2.08;1.95;;;;;;;20.86;72.27;100395.50;;;;-52
2021/09/18 02:26:07;;;;;;;2.63;1.97;;;;;;;20.86;72.29;100398.11;;;;-51
2021/09/18 02:29:08;;;;;;;2.43;2.20;;;;;;;20.86;72.28;100393.38;;;;-52
2021/09/18 02:32:07;;;;;;;2.03;1.93;;;;;;;20.85;72.32;100393.36;;;;-48
2021/09/18 02:35:08;;;;;;;2.21;2.09;;;;;;;20.85;72.23;100392.30;;;;-47
2021/09/18 02:38:07;;;;;;;2.30;2.08;;;;;;;20.84;72.28;100395.00;;;;-50
2021/09/18 02:41:07;;;;;;;2.29;2.11;;;;;;;20.84;72.28;100392.47;;;;-57
2021/09/18 02:44:08;;;;;;;2.32;2.12;;;;;;;20.84;72.31;100389.06;;;;-58
2021/09/18 02:47:07;;;;;;;2.07;1.97;;;;;;;20.83;72.25;100389.13;;;;-58
2021/09/18 02:50:08;;;;;;;2.33;2.13;;;;;;;20.83;72.32;100391.48;;;;-50
2021/09/18 02:53:07;;;;;;;2.26;2.07;;;;;;;20.82;72.25;100393.37;;;;-50
2021/09/18 02:56:07;;;;;;;2.15;2.05;;;;;;;20.83;72.27;100394.50;;;;-50
2021/09/18 02:59:08;;;;;;;2.45;2.25;;;;;;;20.82;72.23;100393.13;;;;-58
2021/09/18 03:02:07;;;;;;;2.30;2.10;;;;;;;20.81;72.26;100389.69;;;;-57
2021/09/18 03:05:08;;;;;;;2.27;2.09;;;;;;;20.81;72.30;100387.25;;;;-50
2021/09/18 03:08:07;;;;;;;2.24;2.04;;;;;;;20.81;72.33;100383.98;;;;-47
2021/09/18 03:11:08;;;;;;;2.42;2.22;;;;;;;20.81;72.23;100388.55;;;;-51
2021/09/18 03:14:08;;;;;;;2.49;2.29;;;;;;;20.81;72.24;100388.97;;;;-52
2021/09/18 03:17:08;;;;;;;2.41;2.12;;;;;;;20.79;72.33;100383.45;;;;-51
2021/09/18 03:20:08;;;;;;;2.19;1.99;;;;;;;20.79;72.24;100380.41;;;;-56
2021/09/18 03:23:08;;;;;;;2.37;2.17;;;;;;;20.79;72.33;100384.15;;;;-58
2021/09/18 03:26:08;;;;;;;2.31;2.19;;;;;;;20.79;72.26;100386.92;;;;-58
2021/09/18 03:29:08;;;;;;;2.24;2.05;;;;;;;20.78;72.29;100389.55;;;;-58
2021/09/18 03:32:07;;;;;;;2.33;2.14;;;;;;;20.79;72.30;100392.38;;;;-51
2021/09/18 03:35:08;;;;;;;2.41;2.21;;;;;;;20.79;72.29;100392.63;;;;-51
2021/09/18 03:38:07;;;;;;;2.40;2.20;;;;;;;20.78;72.25;100390.03;;;;-50
2021/09/18 03:41:07;;;;;;;2.41;2.21;;;;;;;20.78;72.37;100390.44;;;;-50
2021/09/18 03:44:08;;;;;;;2.17;2.07;;;;;;;20.77;72.31;100385.08;;;;-51
2021/09/18 03:47:07;;;;;;;2.44;2.24;;;;;;;20.77;72.35;100378.64;;;;-52
2021/09/18 03:50:08;;;;;;;2.39;2.19;;;;;;;20.77;72.32;100375.85;;;;-51
2021/09/18 03:53:07;;;;;;;2.31;2.16;;;;;;;20.77;72.27;100377.40;;;;-47
2021/09/18 03:56:08;;;;;;;2.64;2.44;;;;;;;20.76;72.29;100378.05;;;;-47
2021/09/18 03:59:08;;;;;;;2.48;2.22;;;;;;;20.76;72.28;100380.75;;;;-48
2021/09/18 04:02:07;;;;;;;2.43;2.23;;;;;;;20.76;72.29;100376.36;;;;-47
2021/09/18 04:05:08;;;;;;;2.23;2.10;;;;;;;20.76;72.25;100378.63;;;;-58
2021/09/18 04:08:08;;;;;;;2.37;2.17;;;;;;;20.76;72.22;100379.78;;;;-58
2021/09/18 04:11:08;;;;;;;2.19;1.99;;;;;;;20.75;72.16;100378.97;;;;-50
2021/09/18 04:14:07;;;;;;;2.19;2.03;;;;;;;20.75;72.17;100384.89;;;;-50
2021/09/18 04:17:07;;;;;;;2.65;2.12;;;;;;;20.75;72.25;100391.24;;;;-50
2021/09/18 04:20:10;;;;;;;2.20;2.10;;;;;;;20.75;72.26;100391.16;;;;-50
2021/09/18 04:23:07;;;;;;;2.43;2.13;;;;;;;20.74;72.18;100387.59;;;;-50
2021/09/18 04:26:07;;;;;;;2.33;2.13;;;;;;;20.74;72.17;100387.43;;;;-52
2021/09/18 04:29:08;;;;;;;2.41;2.21;;;;;;;20.74;72.18;100385.72;;;;-58
2021/09/18 04:32:07;;;;;;;2.39;2.19;;;;;;;20.73;72.18;100389.13;;;;-48
2021/09/18 04:35:08;;;;;;;2.47;2.20;;;;;;;20.73;72.09;100393.93;;;;-50
2021/09/18 04:38:07;;;;;;;2.30;2.10;;;;;;;20.73;72.10;100397.03;;;;-51
2021/09/18 04:41:07;;;;;;;2.41;2.21;;;;;;;20.73;72.11;100399.17;;;;-47
2021/09/18 04:44:08;;;;;;;2.45;2.25;;;;;;;20.72;72.12;100402.00;;;;-47
2021/09/18 04:47:07;;;;;;;2.40;2.20;;;;;;;20.72;72.08;100404.20;;;;-47
2021/09/18 04:50:08;;;;;;;2.29;2.09;;;;;;;20.72;72.14;100403.56;;;;-47
2021/09/18 04:53:07;;;;;;;2.39;2.19;;;;;;;20.72;72.17;100404.20;;;;-52
2021/09/18 04:56:07;;;;;;;2.59;2.39;;;;;;;20.71;72.14;100404.70;;;;-48
2021/09/18 04:59:08;;;;;;;2.22;2.05;;;;;;;20.70;72.11;100403.14;;;;-50
2021/09/18 05:02:07;;;;;;;2.31;2.11;;;;;;;20.70;72.15;100404.60;;;;-50
2021/09/18 05:05:08;;;;;;;2.37;2.17;;;;;;;20.70;72.13;100406.39;;;;-51
2021/09/18 05:08:07;;;;;;;2.51;2.31;;;;;;;20.70;72.12;100410.48;;;;-50
2021/09/18 05:11:07;;;;;;;2.27;2.09;;;;;;;20.69;72.08;100415.12;;;;-50
2021/09/18 05:14:08;;;;;;;2.43;2.26;;;;;;;20.70;72.05;100420.16;;;;-50
2021/09/18 05:17:07;;;;;;;2.45;2.25;;;;;;;20.68;72.12;100420.48;;;;-50
2021/09/18 05:20:08;;;;;;;2.31;2.11;;;;;;;20.69;72.19;100425.70;;;;-51
2021/09/18 05:23:07;;;;;;;3.05;2.11;;;;;;;20.68;72.10;100430.58;;;;-50
2021/09/18 05:26:07;;;;;;;2.23;2.03;;;;;;;20.68;72.15;100432.86;;;;-51
2021/09/18 05:29:08;;;;;;;2.26;2.08;;;;;;;20.68;72.08;100434.89;;;;-57
2021/09/18 05:32:07;;;;;;;2.19;2.00;;;;;;;20.67;72.07;100439.95;;;;-57
2021/09/18 05:35:08;;;;;;;2.69;2.09;;;;;;;20.68;72.09;100443.53;;;;-57
2021/09/18 05:38:07;;;;;;;2.15;2.05;;;;;;;20.67;72.12;100445.25;;;;-57
2021/09/18 05:41:07;;;;;;;2.11;2.01;;;;;;;20.67;72.16;100445.25;;;;-57
2021/09/18 05:44:08;;;;;;;2.27;2.08;;;;;;;20.67;72.15;100445.63;;;;-51
2021/09/18 05:47:07;;;;;;;2.25;2.10;;;;;;;20.66;72.15;100448.48;;;;-52
2021/09/18 05:50:08;;;;;;;2.21;2.08;;;;;;;20.67;72.12;100445.74;;;;-47
2021/09/18 05:53:09;;;;;;;2.18;2.05;;;;;;;20.66;72.17;100448.73;;;;-47
2021/09/18 05:56:07;;;;;;;2.25;2.07;;;;;;;20.66;72.12;100453.30;;;;-51
2021/09/18 05:59:08;;;;;;;2.34;2.14;;;;;;;20.66;72.17;100456.80;;;;-47
2021/09/18 06:02:07;;;;;;;2.47;2.27;;;;;;;20.65;72.18;100456.89;;;;-58
2021/09/18 06:05:08;;;;;;;2.43;2.23;;;;;;;20.65;72.21;100457.30;;;;-57
2021/09/18 06:08:07;;;;;;;2.09;1.97;;;;;;;20.66;72.25;100461.77;;;;-56
2021/09/18 06:11:09;;;;;;;2.24;2.08;;;;;;;20.65;72.18;100457.30;;;;-58
2021/09/18 06:14:08;;;;;;;2.08;1.98;;;;;;;20.66;72.21;100457.37;;;;-58
2021/09/18 06:17:07;;;;;;;2.29;2.09;;;;;;;20.65;72.19;100450.13;;;;-58
2021/09/18 06:20:07;;;;;;;2.20;2.09;;;;;;;20.65;72.28;100450.03;;;;-51
2021/09/18 06:23:07;;;;;;;2.27;2.07;;;;;;;20.65;72.28;100447.75;;;;-51
2021/09/18 06:26:07;;;;;;;2.25;2.09;;;;;;;20.64;72.21;100458.84;;;;-50
2021/09/18 06:29:08;;;;;;;2.36;2.16;;;;;;;20.64;72.28;100459.48;;;;-50
2021/09/18 06:32:08;;;;;;;2.13;2.03;;;;;;;20.64;72.21;100458.51;;;;-50
2021/09/18 06:35:08;;;;;;;2.38;2.18;;;;;;;20.62;72.24;100462.48;;;;-59
2021/09/18 06:38:07;;;;;;;2.25;2.10;;;;;;;20.62;72.24;100464.36;;;;-47
2021/09/18 06:41:07;;;;;;;2.36;2.16;;;;;;;20.62;72.23;100464.45;;;;-47
2021/09/18 06:44:07;;;;;;;2.25;2.10;;;;;;;20.62;72.28;100467.45;;;;-47
2021/09/18 06:47:07;;;;;;;2.05;1.95;;;;;;;20.62;72.20;100466.32;;;;-50
2021/09/18 06:50:08;;;;;;;2.40;2.20;;;;;;;20.62;72.26;100467.47;;;;-50
2021/09/18 06:53:07;;;;;;;2.10;2.00;;;;;;;20.62;72.20;100463.96;;;;-50
2021/09/18 06:56:07;;;;;;;2.15;1.95;;;;;;;20.62;72.25;100466.41;;;;-50
2021/09/18 06:59:07;;;;;;;2.09;1.93;;;;;;;20.62;72.28;100469.41;;;;-50
2021/09/18 07:02:08;;;;;;;2.39;2.19;;;;;;;20.61;72.28;100467.22;;;;-52
2021/09/18 07:05:08;;;;;;;2.33;2.13;;;;;;;20.61;72.26;100464.22;;;;-51
2021/09/18 07:08:07;;;;;;;2.25;2.10;;;;;;;20.62;72.27;100465.50;;;;-51
2021/09/18 07:11:07;;;;;;;2.22;2.02;;;;;;;20.61;72.30;100464.62;;;;-51
2021/09/18 07:14:08;;;;;;;2.16;2.03;;;;;;;20.61;72.35;100462.26;;;;-52
2021/09/18 07:17:07;;;;;;;2.30;2.10;;;;;;;20.61;72.23;100464.30;;;;-51
2021/09/18 07:20:08;;;;;;;2.36;2.16;;;;;;;20.61;72.29;100468.61;;;;-50
2021/09/18 07:23:07;;;;;;;2.19;2.04;;;;;;;20.61;72.29;100469.56;;;;-50
2021/09/18 07:26:07;;;;;;;2.05;1.95;;;;;;;20.61;72.38;100467.61;;;;-50
2021/09/18 07:29:07;;;;;;;2.10;2.00;;;;;;;20.60;72.38;100466.88;;;;-47
2021/09/18 07:32:07;;;;;;;2.15;2.03;;;;;;;20.60;72.29;100465.98;;;;-48
2021/09/18 07:35:10;;;;;;;2.23;2.03;;;;;;;20.61;72.32;100461.42;;;;-48
2021/09/18 07:38:08;;;;;;;2.29;2.09;;;;;;;20.60;72.30;100460.05;;;;-50
2021/09/18 07:41:07;;;;;;;2.04;1.94;;;;;;;20.60;72.33;100462.81;;;;-50
2021/09/18 07:44:07;;;;;;;2.00;1.90;;;;;;;20.60;72.39;100462.24;;;;-50
2021/09/18 07:47:08;;;;;;;2.04;1.90;;;;;;;20.60;72.32;100461.84;;;;-56
2021/09/18 07:50:08;;;;;;;2.09;1.97;;;;;;;20.59;72.35;100465.02;;;;-48
2021/09/18 07:53:08;;;;;;;2.22;1.99;;;;;;;20.59;72.36;100465.77;;;;-58
2021/09/18 07:56:07;;;;;;;2.15;2.05;;;;;;;20.59;72.37;100469.91;;;;-50
2021/09/18 07:59:08;;;;;;;2.38;2.19;;;;;;;20.59;72.34;100471.13;;;;-50
2021/09/18 08:02:07;;;;;;;2.17;2.07;;;;;;;20.59;72.37;100471.13;;;;-57
2021/09/18 08:05:07;;;;;;;2.23;2.09;;;;;;;20.58;72.37;100474.94;;;;-57
2021/09/18 08:08:07;;;;;;;1.93;1.83;;;;;;;20.59;72.33;100479.77;;;;-57
2021/09/18 08:11:07;;;;;;;2.30;2.10;;;;;;;20.59;72.35;100482.38;;;;-57
2021/09/18 08:14:07;;;;;;;2.06;1.96;;;;;;;20.58;72.34;100484.95;;;;-50
2021/09/18 08:17:07;;;;;;;2.42;2.13;;;;;;;20.58;72.39;100484.22;;;;-52
2021/09/18 08:20:07;;;;;;;2.19;1.99;;;;;;;20.59;72.39;100480.58;;;;-51
2021/09/18 08:23:07;;;;;;;2.18;1.99;;;;;;;20.59;72.41;100481.14;;;;-58
2021/09/18 08:26:07;;;;;;;2.20;2.00;;;;;;;20.58;72.36;100477.05;;;;-51
2021/09/18 08:29:07;;;;;;;2.00;1.90;;;;;;;20.58;72.40;100471.69;;;;-47
2021/09/18 08:32:07;;;;;;;2.00;1.90;;;;;;;20.58;72.35;100477.63;;;;-50
2021/09/18 08:35:07;;;;;;;2.05;1.95;;;;;;;20.58;72.42;100478.77;;;;-50
2021/09/18 08:38:07;;;;;;;2.00;1.90;;;;;;;20.58;72.34;100478.92;;;;-50
2021/09/18 08:41:08;;;;;;;2.11;2.00;;;;;;;20.58;72.42;100479.91;;;;-52
2021/09/18 08:44:07;;;;;;;2.21;2.09;;;;;;;20.58;72.41;100482.51;;;;-52
2021/09/18 08:47:07;;;;;;;2.31;2.11;;;;;;;20.58;72.40;100482.32;;;;-47
2021/09/18 08:50:07;;;;;;;2.15;2.05;;;;;;;20.57;72.39;100480.61;;;;-47
2021/09/18 08:53:07;;;;;;;2.17;2.07;;;;;;;20.58;72.39;100480.37;;;;-47
2021/09/18 08:56:08;;;;;;;1.99;1.89;;;;;;;20.57;72.37;100481.92;;;;-57
2021/09/18 08:59:08;;;;;;;2.10;2.00;;;;;;;20.57;72.40;100473.95;;;;-50
2021/09/18 09:02:08;;;;;;;2.07;1.97;;;;;;;20.57;72.42;100473.95;;;;-50
2021/09/18 09:05:07;;;;;;;2.06;1.96;;;;;;;20.58;72.42;100476.24;;;;-57
2021/09/18 09:08:08;;;;;;;1.94;1.84;;;;;;;20.57;72.44;100476.05;;;;-47
2021/09/18 09:11:07;;;;;;;1.99;1.89;;;;;;;20.58;72.40;100480.31;;;;-47
2021/09/18 09:14:08;;;;;;;2.11;1.96;;;;;;;20.57;72.40;100480.38;;;;-47
2021/09/18 09:17:08;;;;;;;1.96;1.86;;;;;;;20.57;72.42;100478.50;;;;-47
2021/09/18 09:20:07;;;;;;;1.90;1.80;;;;;;;20.57;72.38;100479.39;;;;-48
2021/09/18 09:23:07;;;;;;;2.00;1.89;;;;;;;20.58;72.42;100478.20;;;;-47
2021/09/18 09:26:07;;;;;;;2.00;1.90;;;;;;;20.57;72.41;100476.15;;;;-47
2021/09/18 09:29:07;;;;;;;1.89;1.79;;;;;;;20.57;72.45;100476.39;;;;-57
2021/09/18 09:32:08;;;;;;;2.07;1.93;;;;;;;20.57;72.41;100473.70;;;;-58
2021/09/18 09:35:07;;;;;;;2.03;1.93;;;;;;;20.57;72.37;100476.87;;;;-58
2021/09/18 09:38:07;;;;;;;2.00;1.90;;;;;;;20.57;72.43;100472.80;;;;-52
2021/09/18 09:41:07;;;;;;;1.95;1.85;;;;;;;20.57;72.41;100470.52;;;;-50
2021/09/18 09:44:07;;;;;;;1.89;1.79;;;;;;;20.56;72.46;100466.11;;;;-52
2021/09/18 09:47:07;;;;;;;2.03;1.93;;;;;;;20.57;72.48;100464.91;;;;-48
2021/09/18 09:50:07;;;;;;;2.14;1.93;;;;;;;20.56;72.42;100462.52;;;;-47
2021/09/18 09:53:07;;;;;;;2.00;1.90;;;;;;;20.56;72.42;100463.17;;;;-57
2021/09/18 09:56:08;;;;;;;2.01;1.91;;;;;;;20.56;72.38;100461.70;;;;-50
2021/09/18 09:59:07;;;;;;;2.21;2.05;;;;;;;20.57;72.41;100462.78;;;;-52
2021/09/18 10:02:07;;;;;;;1.95;1.85;;;;;;;20.57;72.36;100457.17;;;;-47
2021/09/18 10:05:07;;;;;;;2.00;1.90;;;;;;;20.56;72.38;100458.94;;;;-47
2021/09/18 10:08:07;;;;;;;2.05;1.95;;;;;;;20.56;72.42;100460.50;;;;-51
2021/09/18 10:11:07;;;;;;;2.02;1.92;;;;;;;20.56;72.39;100457.81;;;;-58
2021/09/18 10:14:08;;;;;;;2.01;1.90;;;;;;;20.56;72.39;100457.31;;;;-57
2021/09/18 10:17:07;;;;;;;1.98;1.88;;;;;;;20.56;72.37;100457.97;;;;-57
2021/09/18 10:20:11;;;;;;;2.25;2.10;;;;;;;20.55;72.39;100453.99;;;;-51
2021/09/18 10:23:17;;;;;;;2.11;2.01;;;;;;;20.55;72.36;100450.00;;;;-52
2021/09/18 10:26:07;;;;;;;2.11;2.00;;;;;;;20.56;72.41;100452.36;;;;-51
2021/09/18 10:29:07;;;;;;;2.03;1.93;;;;;;;20.55;72.37;100449.77;;;;-52
2021/09/18 10:32:07;;;;;;;2.12;2.02;;;;;;;20.55;72.39;100445.36;;;;-51
2021/09/18 10:35:07;;;;;;;2.00;1.90;;;;;;;20.55;72.34;100444.72;;;;-51
2021/09/18 10:38:07;;;;;;;1.87;1.77;;;;;;;20.55;72.42;100444.71;;;;-52
2021/09/18 10:41:07;;;;;;;2.00;1.90;;;;;;;20.55;72.41;100438.20;;;;-51
2021/09/18 10:44:07;;;;;;;2.11;1.91;;;;;;;20.55;72.42;100441.13;;;;-51
2021/09/18 10:47:07;;;;;;;1.88;1.78;;;;;;;20.55;72.35;100439.83;;;;-52
2021/09/18 10:50:07;;;;;;;1.92;1.82;;;;;;;20.56;72.41;100433.63;;;;-58
2021/09/18 10:53:07;;;;;;;2.01;1.91;;;;;;;20.55;72.42;100425.17;;;;-57
2021/09/18 10:56:07;;;;;;;2.16;1.96;;;;;;;20.56;72.44;100424.84;;;;-57
2021/09/18 10:59:08;;;;;;;2.29;1.99;;;;;;;20.55;72.39;100422.31;;;;-51
2021/09/18 11:02:07;;;;;;;3.26;1.95;;;;;;;20.55;72.39;100424.52;;;;-50
2021/09/18 11:05:08;;;;;;;2.85;2.01;;;;;;;20.55;72.43;100423.70;;;;-57
2021/09/18 11:08:07;;;;;;;2.33;2.00;;;;;;;20.54;72.40;100420.92;;;;-58
2021/09/18 11:11:09;;;;;;;2.83;1.80;;;;;;;20.54;72.45;100420.22;;;;-51
2021/09/18 11:14:07;;;;;;;2.25;1.98;;;;;;;20.54;72.40;100417.18;;;;-51
2021/09/18 11:17:07;;;;;;;2.13;1.90;;;;;;;20.55;72.44;100413.29;;;;-58
2021/09/18 11:20:07;;;;;;;1.95;1.85;;;;;;;20.54;72.46;100410.75;;;;-50
2021/09/18 11:23:07;;;;;;;1.90;1.80;;;;;;;20.54;72.45;100407.25;;;;-51
2021/09/18 11:26:07;;;;;;;1.97;1.87;;;;;;;20.54;72.41;100409.20;;;;-51
2021/09/18 11:29:07;;;;;;;2.96;1.84;;;;;;;20.53;72.47;100404.89;;;;-47
2021/09/18 11:32:09;;;;;;;1.91;1.81;;;;;;;20.54;72.41;100407.58;;;;-50
2021/09/18 11:35:07;;;;;;;2.00;1.90;;;;;;;20.53;72.45;100408.31;;;;-48
2021/09/18 11:38:07;;;;;;;1.97;1.83;;;;;;;20.53;72.46;100406.20;;;;-50
2021/09/18 11:41:07;;;;;;;1.84;1.73;;;;;;;20.52;72.47;100401.65;;;;-47
2021/09/18 11:44:07;;;;;;;2.12;1.92;;;;;;;20.52;72.45;100395.46;;;;-58
2021/09/18 11:47:07;;;;;;;2.29;1.81;;;;;;;20.53;72.50;100388.86;;;;-47
2021/09/18 11:50:07;;;;;;;1.81;1.71;;;;;;;20.52;72.52;100389.58;;;;-58
2021/09/18 11:53:07;;;;;;;2.17;1.97;;;;;;;20.51;72.52;100392.03;;;;-56
2021/09/18 11:56:07;;;;;;;2.11;1.91;;;;;;;20.52;72.51;100386.24;;;;-48
2021/09/18 11:59:07;;;;;;;2.20;1.98;;;;;;;20.51;72.49;100380.95;;;;-51
2021/09/18 12:02:07;;;;;;;2.00;1.90;;;;;;;20.51;72.47;100383.24;;;;-51
2021/09/18 12:05:07;;;;;;;1.79;1.69;;;;;;;20.51;72.51;100375.02;;;;-47
2021/09/18 12:08:07;;;;;;;3.27;1.80;;;;;;;20.51;72.52;100374.28;;;;-50
2021/09/18 12:11:07;;;;;;;2.20;2.00;;;;;;;20.53;72.51;100373.07;;;;-59
2021/09/18 12:14:07;;;;;;;5.25;2.09;;;;;;;20.54;72.46;100371.20;;;;-61
2021/09/18 12:17:07;;;;;;;5.02;2.67;;;;;;;20.55;72.16;100362.97;;;;-59
2021/09/18 12:20:07;;;;;;;8.07;3.07;;;;;;;20.57;71.74;100363.78;;;;-51
2021/09/18 12:23:07;;;;;;;6.61;3.23;;;;;;;20.59;71.58;100363.08;;;;-51
2021/09/18 12:26:07;;;;;;;5.14;3.61;;;;;;;20.61;71.02;100359.59;;;;-66
2021/09/18 12:29:07;;;;;;;4.65;3.77;;;;;;;20.63;71.41;100358.83;;;;-60
2021/09/18 12:32:07;;;;;;;6.21;3.73;;;;;;;20.65;71.35;100355.41;;;;-61
2021/09/18 12:35:07;;;;;;;6.65;4.18;;;;;;;20.65;71.06;100351.61;;;;-62
2021/09/18 12:38:07;;;;;;;7.87;4.07;;;;;;;20.68;71.43;100349.56;;;;-58
2021/09/18 12:41:07;;;;;;;4.15;3.74;;;;;;;20.69;71.47;100354.53;;;;-58
2021/09/18 12:44:08;;;;;;;5.98;3.46;;;;;;;20.71;71.48;100353.54;;;;-51
2021/09/18 12:47:07;;;;;;;5.16;3.34;;;;;;;20.72;71.69;100351.52;;;;-52
2021/09/18 12:50:07;;;;;;;7.67;3.61;;;;;;;20.73;71.86;100348.66;;;;-58
2021/09/18 12:53:07;;;;;;;5.52;3.37;;;;;;;20.75;71.89;100348.08;;;;-51
2021/09/18 12:56:07;;;;;;;5.60;3.29;;;;;;;20.75;72.00;100346.63;;;;-56
2021/09/18 12:59:07;;;;;;;5.39;3.07;;;;;;;20.76;72.13;100341.73;;;;-57
2021/09/18 13:02:07;;;;;;;4.64;3.25;;;;;;;20.78;72.12;100340.69;;;;-53
2021/09/18 13:05:07;;;;;;;4.04;2.92;;;;;;;20.78;72.13;100341.25;;;;-51
2021/09/18 13:08:07;;;;;;;4.79;3.27;;;;;;;20.80;72.20;100341.17;;;;-52
2021/09/18 13:11:07;;;;;;;3.75;2.96;;;;;;;20.81;72.18;100340.58;;;;-53
2021/09/18 13:14:07;;;;;;;3.91;2.93;;;;;;;20.82;72.22;100343.61;;;;-56
2021/09/18 13:17:08;;;;;;;5.05;3.16;;;;;;;20.84;72.28;100344.67;;;;-61
2021/09/18 13:20:08;;;;;;;3.58;2.95;;;;;;;20.84;72.24;100342.06;;;;-59
2021/09/18 13:23:10;;;;;;;3.33;2.76;;;;;;;20.85;72.27;100338.05;;;;-51
2021/09/18 13:26:07;;;;;;;4.31;2.82;;;;;;;20.85;72.24;100337.39;;;;-55
2021/09/18 13:29:07;;;;;;;7.44;2.99;;;;;;;20.88;72.15;100331.80;;;;-56
2021/09/18 13:32:07;;;;;;;3.33;2.87;;;;;;;20.89;72.22;100331.95;;;;-58
2021/09/18 13:35:07;;;;;;;4.01;3.01;;;;;;;20.90;72.25;100329.18;;;;-53
2021/09/18 13:38:07;;;;;;;5.55;2.87;;;;;;;20.90;72.32;100322.66;;;;-57
2021/09/18 13:41:07;;;;;;;4.45;2.80;;;;;;;20.92;72.27;100321.86;;;;-58
2021/09/18 13:44:07;;;;;;;3.29;2.72;;;;;;;20.92;72.27;100318.75;;;;-56
2021/09/18 13:47:08;;;;;;;6.40;2.80;;;;;;;20.93;72.29;100313.37;;;;-50
2021/09/18 13:50:07;;;;;;;5.89;3.27;;;;;;;20.93;72.26;100307.16;;;;-58
2021/09/18 13:53:07;;;;;;;3.35;2.89;;;;;;;20.95;72.26;100309.70;;;;-58
2021/09/18 13:56:09;;;;;;;5.21;2.73;;;;;;;20.95;72.38;100302.05;;;;-52
2021/09/18 13:59:07;;;;;;;2.99;2.61;;;;;;;20.96;72.26;100302.05;;;;-57
2021/09/18 14:02:08;;;;;;;3.73;2.57;;;;;;;20.96;72.32;100302.86;;;;-56
2021/09/18 14:05:07;;;;;;;5.17;2.62;;;;;;;20.98;72.31;100297.97;;;;-57
2021/09/18 14:08:07;;;;;;;3.55;2.86;;;;;;;20.99;72.26;100301.37;;;;-62
2021/09/18 14:11:07;;;;;;;3.25;2.67;;;;;;;20.99;72.32;100302.43;;;;-58
2021/09/18 14:14:07;;;;;;;3.17;2.79;;;;;;;21.00;72.24;100293.05;;;;-58
2021/09/18 14:17:07;;;;;;;8.08;2.91;;;;;;;21.01;72.27;100289.06;;;;-54
2021/09/18 14:20:07;;;;;;;5.76;2.66;;;;;;;21.02;72.21;100285.97;;;;-56
2021/09/18 14:23:07;;;;;;;5.78;2.78;;;;;;;21.03;72.19;100286.47;;;;-62
2021/09/18 14:26:07;;;;;;;3.87;2.80;;;;;;;21.02;72.15;100287.04;;;;-57
2021/09/18 14:29:09;;;;;;;5.02;2.75;;;;;;;21.03;72.11;100284.52;;;;-54
2021/09/18 14:32:08;;;;;;;3.89;2.79;;;;;;;21.03;72.09;100279.54;;;;-55
2021/09/18 14:35:07;;;;;;;5.03;2.99;;;;;;;21.04;72.08;100275.86;;;;-59
2021/09/18 14:38:07;;;;;;;4.70;2.71;;;;;;;21.04;72.20;100276.66;;;;-53
2021/09/18 14:41:07;;;;;;;4.17;2.65;;;;;;;21.05;72.17;100274.41;;;;-64
2021/09/18 14:44:07;;;;;;;3.58;2.85;;;;;;;21.05;72.06;100266.98;;;;-63
2021/09/18 14:47:07;;;;;;;3.98;2.83;;;;;;;21.04;72.25;100267.78;;;;-59
2021/09/18 14:50:07;;;;;;;4.30;2.96;;;;;;;21.02;72.15;100264.94;;;;-57
2021/09/18 14:53:07;;;;;;;3.22;2.77;;;;;;;21.02;72.10;100265.19;;;;-63
2021/09/18 14:56:07;;;;;;;3.22;2.77;;;;;;;21.01;72.11;100261.70;;;;-60
2021/09/18 14:59:07;;;;;;;4.90;2.81;;;;;;;21.01;72.09;100259.59;;;;-62
2021/09/18 15:02:10;;;;;;;3.05;2.75;;;;;;;21.00;72.08;100258.70;;;;-60
2021/09/18 15:05:07;;;;;;;3.10;2.77;;;;;;;20.99;72.04;100254.37;;;;-64
2021/09/18 15:08:07;;;;;;;3.17;2.70;;;;;;;20.99;72.05;100252.74;;;;-60
2021/09/18 15:11:07;;;;;;;3.76;2.77;;;;;;;20.98;72.04;100253.73;;;;-61
2021/09/18 15:14:07;;;;;;;3.43;2.85;;;;;;;20.98;71.93;100252.92;;;;-60
2021/09/18 15:17:07;;;;;;;3.10;2.78;;;;;;;20.98;71.97;100252.52;;;;-58
2021/09/18 15:20:07;;;;;;;3.06;2.76;;;;;;;20.97;71.92;100256.32;;;;-60
2021/09/18 15:23:07;;;;;;;3.83;2.82;;;;;;;20.96;71.80;100251.78;;;;-60
2021/09/18 15:26:07;;;;;;;3.67;2.77;;;;;;;20.96;71.83;100246.73;;;;-65
2021/09/18 15:29:07;;;;;;;4.91;2.89;;;;;;;20.96;71.88;100250.81;;;;-60
2021/09/18 15:32:07;;;;;;;2.70;2.50;;;;;;;20.95;71.86;100247.13;;;;-60
2021/09/18 15:35:08;;;;;;;3.35;2.65;;;;;;;20.95;71.89;100246.39;;;;-57
2021/09/18 15:38:07;;;;;;;3.19;2.68;;;;;;;20.96;71.88;100244.29;;;;-59
2021/09/18 15:41:11;;;;;;;4.10;2.72;;;;;;;20.98;72.00;100245.74;;;;-55
2021/09/18 15:44:07;;;;;;;4.07;3.08;;;;;;;21.00;71.90;100245.31;;;;-56
2021/09/18 15:47:07;;;;;;;8.27;2.71;;;;;;;21.00;71.96;100238.41;;;;-53
2021/09/18 15:50:07;;;;;;;3.93;2.78;;;;;;;21.01;71.98;100239.13;;;;-57
2021/09/18 15:53:09;;;;;;;4.01;2.70;;;;;;;21.01;72.11;100237.42;;;;-59
2021/09/18 15:56:07;;;;;;;3.37;2.83;;;;;;;21.02;72.16;100238.70;;;;-55
2021/09/18 15:59:07;;;;;;;3.20;2.75;;;;;;;21.02;72.11;100232.45;;;;-57
2021/09/18 16:02:07;;;;;;;3.07;2.76;;;;;;;21.04;72.14;100236.50;;;;-58
2021/09/18 16:05:07;;;;;;;5.25;2.65;;;;;;;21.04;72.15;100232.42;;;;-56
2021/09/18 16:08:07;;;;;;;4.01;2.67;;;;;;;21.04;72.17;100237.02;;;;-55
2021/09/18 16:11:07;;;;;;;3.11;2.81;;;;;;;21.03;72.15;100235.22;;;;-56
2021/09/18 16:14:07;;;;;;;4.85;2.71;;;;;;;21.02;72.07;100230.34;;;;-54
2021/09/18 16:17:07;;;;;;;4.36;2.71;;;;;;;21.02;72.11;100232.84;;;;-64
2021/09/18 16:20:07;;;;;;;3.69;2.63;;;;;;;21.02;72.07;100232.30;;;;-64
2021/09/18 16:23:07;;;;;;;3.16;2.77;;;;;;;21.01;72.03;100228.30;;;;-64
2021/09/18 16:26:07;;;;;;;3.79;2.93;;;;;;;21.01;71.99;100226.02;;;;-52
2021/09/18 16:29:07;;;;;;;3.41;2.84;;;;;;;21.00;72.04;100226.27;;;;-52
2021/09/18 16:32:07;;;;;;;3.03;2.81;;;;;;;20.99;71.98;100222.51;;;;-51
2021/09/18 16:35:07;;;;;;;4.15;2.70;;;;;;;20.99;72.04;100222.67;;;;-51
2021/09/18 16:38:07;;;;;;;3.74;2.60;;;;;;;20.99;71.98;100222.44;;;;-64
2021/09/18 16:41:07;;;;;;;3.29;2.69;;;;;;;20.99;71.99;100219.17;;;;-53
2021/09/18 16:44:07;;;;;;;2.97;2.63;;;;;;;20.99;71.95;100222.27;;;;-51